sensor_id;sensor_type;location;lat;lon;timestamp;temperature;humidity
40932;DHT22;36257;46.052;12.540;2023-09-19T00:00:21;20.00;99.90
40932;DHT22;36257;46.052;12.540;2023-09-19T00:02:57;20.00;99.90
40932;DHT22;36257;46.052;12.540;2023-09-19T00:05:28;20.00;99.90
40932;DHT22;36257;46.052;12.540;2023-09-19T00:07:54;19.90;99.90
40932;DHT22;36257;46.052;12.540;2023-09-19T00:10:21;19.80;99.90
40932;DHT22;36257;46.052;12.540;2023-09-19T00:12:55;19.80;99.90
40932;DHT22;36257;46.052;12.540;2023-09-19T00:15:26;19.80;99.90
40932;DHT22;36257;46.052;12.540;2023-09-19T00:17:55;19.90;99.90
40932;DHT22;36257;46.052;12.540;2023-09-19T00:20:21;19.90;99.90
40932;DHT22;36257;46.052;12.540;2023-09-19T00:22:49;20.00;99.90
40932;DHT22;36257;46.052;12.540;2023-09-19T00:25:19;19.90;99.90
40932;DHT22;36257;46.052;12.540;2023-09-19T00:27:45;19.90;99.90
40932;DHT22;36257;46.052;12.540;2023-09-19T00:30:13;19.90;99.90
40932;DHT22;36257;46.052;12.540;2023-09-19T00:32:45;19.80;99.90
40932;DHT22;36257;46.052;12.540;2023-09-19T00:35:16;19.70;99.90
40932;DHT22;36257;46.052;12.540;2023-09-19T00:37:42;19.70;99.90
40932;DHT22;36257;46.052;12.540;2023-09-19T00:40:09;19.80;99.90
40932;DHT22;36257;46.052;12.540;2023-09-19T00:42:42;19.80;99.90
40932;DHT22;36257;46.052;12.540;2023-09-19T00:45:08;19.80;99.90
40932;DHT22;36257;46.052;12.540;2023-09-19T00:47:42;19.80;99.90
40932;DHT22;36257;46.052;12.540;2023-09-19T00:50:10;19.80;99.90
40932;DHT22;36257;46.052;12.540;2023-09-19T00:52:39;19.90;99.90
40932;DHT22;36257;46.052;12.540;2023-09-19T00:55:08;19.90;99.90
40932;DHT22;36257;46.052;12.540;2023-09-19T00:57:34;19.90;99.90
40932;DHT22;36257;46.052;12.540;2023-09-19T01:00:01;19.90;99.90
40932;DHT22;36257;46.052;12.540;2023-09-19T01:02:32;19.90;99.90
40932;DHT22;36257;46.052;12.540;2023-09-19T01:04:58;19.90;99.90
40932;DHT22;36257;46.052;12.540;2023-09-19T01:07:25;19.90;99.90
40932;DHT22;36257;46.052;12.540;2023-09-19T01:09:51;19.90;99.90
40932;DHT22;36257;46.052;12.540;2023-09-19T01:12:25;19.90;99.90
40932;DHT22;36257;46.052;12.540;2023-09-19T01:15:08;19.90;99.90
40932;DHT22;36257;46.052;12.540;2023-09-19T01:17:52;19.90;99.90
40932;DHT22;36257;46.052;12.540;2023-09-19T01:20:41;19.90;99.90
40932;DHT22;36257;46.052;12.540;2023-09-19T01:31:28;19.90;99.90
40932;DHT22;36257;46.052;12.540;2023-09-19T01:34:00;19.90;99.90
40932;DHT22;36257;46.052;12.540;2023-09-19T01:36:28;20.00;99.90
40932;DHT22;36257;46.052;12.540;2023-09-19T01:38:55;20.00;99.90
40932;DHT22;36257;46.052;12.540;2023-09-19T01:41:26;20.00;99.90
40932;DHT22;36257;46.052;12.540;2023-09-19T01:43:52;19.90;99.90
40932;DHT22;36257;46.052;12.540;2023-09-19T01:46:39;19.90;99.90
40932;DHT22;36257;46.052;12.540;2023-09-19T01:49:14;19.90;99.90
40932;DHT22;36257;46.052;12.540;2023-09-19T01:54:36;19.90;99.90
40932;DHT22;36257;46.052;12.540;2023-09-19T01:57:27;19.80;99.90
40932;DHT22;36257;46.052;12.540;2023-09-19T02:00:07;19.80;99.90
40932;DHT22;36257;46.052;12.540;2023-09-19T02:02:37;19.80;99.90
40932;DHT22;36257;46.052;12.540;2023-09-19T02:05:04;19.70;99.90
40932;DHT22;36257;46.052;12.540;2023-09-19T02:07:30;19.70;99.90
40932;DHT22;36257;46.052;12.540;2023-09-19T02:09:59;19.70;99.90
40932;DHT22;36257;46.052;12.540;2023-09-19T02:12:31;19.70;99.90
40932;DHT22;36257;46.052;12.540;2023-09-19T02:14:58;19.80;99.90
40932;DHT22;36257;46.052;12.540;2023-09-19T02:17:25;19.70;99.90
40932;DHT22;36257;46.052;12.540;2023-09-19T02:19:54;19.70;99.90
40932;DHT22;36257;46.052;12.540;2023-09-19T02:22:21;19.70;99.90
40932;DHT22;36257;46.052;12.540;2023-09-19T02:24:46;19.70;99.90
40932;DHT22;36257;46.052;12.540;2023-09-19T02:27:13;19.90;99.90
40932;DHT22;36257;46.052;12.540;2023-09-19T02:29:41;19.90;99.90
40932;DHT22;36257;46.052;12.540;2023-09-19T02:32:07;19.90;99.90
40932;DHT22;36257;46.052;12.540;2023-09-19T02:34:32;19.80;99.90
40932;DHT22;36257;46.052;12.540;2023-09-19T02:37:04;19.80;99.90
40932;DHT22;36257;46.052;12.540;2023-09-19T02:39:34;19.80;99.90
40932;DHT22;36257;46.052;12.540;2023-09-19T02:42:00;19.80;99.90
40932;DHT22;36257;46.052;12.540;2023-09-19T02:44:25;19.80;99.90
40932;DHT22;36257;46.052;12.540;2023-09-19T02:46:52;19.80;99.90
40932;DHT22;36257;46.052;12.540;2023-09-19T02:49:18;19.80;99.90
40932;DHT22;36257;46.052;12.540;2023-09-19T02:51:44;19.70;99.90
40932;DHT22;36257;46.052;12.540;2023-09-19T02:54:10;19.70;99.90
40932;DHT22;36257;46.052;12.540;2023-09-19T02:56:36;19.60;99.90
40932;DHT22;36257;46.052;12.540;2023-09-19T02:59:02;19.60;99.90
40932;DHT22;36257;46.052;12.540;2023-09-19T03:01:28;19.60;99.90
40932;DHT22;36257;46.052;12.540;2023-09-19T03:03:55;19.50;99.90
40932;DHT22;36257;46.052;12.540;2023-09-19T03:06:21;19.50;99.90
40932;DHT22;36257;46.052;12.540;2023-09-19T03:08:47;19.50;99.90
40932;DHT22;36257;46.052;12.540;2023-09-19T03:11:15;19.50;99.90
40932;DHT22;36257;46.052;12.540;2023-09-19T03:13:41;19.50;99.90
40932;DHT22;36257;46.052;12.540;2023-09-19T03:16:08;19.50;99.90
40932;DHT22;36257;46.052;12.540;2023-09-19T03:18:34;19.50;99.90
40932;DHT22;36257;46.052;12.540;2023-09-19T03:21:00;19.40;99.90
40932;DHT22;36257;46.052;12.540;2023-09-19T03:23:27;19.40;99.90
40932;DHT22;36257;46.052;12.540;2023-09-19T03:25:53;19.40;99.90
40932;DHT22;36257;46.052;12.540;2023-09-19T03:28:19;19.40;99.90
40932;DHT22;36257;46.052;12.540;2023-09-19T03:30:46;19.30;99.90
40932;DHT22;36257;46.052;12.540;2023-09-19T03:33:12;19.30;99.90
40932;DHT22;36257;46.052;12.540;2023-09-19T03:35:39;19.30;99.90
40932;DHT22;36257;46.052;12.540;2023-09-19T03:38:05;19.30;99.90
40932;DHT22;36257;46.052;12.540;2023-09-19T03:40:31;19.30;99.90
40932;DHT22;36257;46.052;12.540;2023-09-19T03:42:58;19.30;99.90
40932;DHT22;36257;46.052;12.540;2023-09-19T03:45:25;19.20;99.90
40932;DHT22;36257;46.052;12.540;2023-09-19T03:47:51;19.10;99.90
40932;DHT22;36257;46.052;12.540;2023-09-19T03:50:16;19.10;99.90
40932;DHT22;36257;46.052;12.540;2023-09-19T03:52:45;19.10;99.90
40932;DHT22;36257;46.052;12.540;2023-09-19T03:55:11;19.10;99.90
40932;DHT22;36257;46.052;12.540;2023-09-19T03:57:37;19.10;99.90
40932;DHT22;36257;46.052;12.540;2023-09-19T04:00:04;19.10;99.90
40932;DHT22;36257;46.052;12.540;2023-09-19T04:02:31;19.10;99.90
40932;DHT22;36257;46.052;12.540;2023-09-19T04:04:58;19.10;99.90
40932;DHT22;36257;46.052;12.540;2023-09-19T04:07:24;19.10;99.90
40932;DHT22;36257;46.052;12.540;2023-09-19T04:09:54;19.20;99.90
40932;DHT22;36257;46.052;12.540;2023-09-19T04:12:20;19.20;99.90
40932;DHT22;36257;46.052;12.540;2023-09-19T04:14:46;19.10;99.90
40932;DHT22;36257;46.052;12.540;2023-09-19T04:17:12;19.10;99.90
40932;DHT22;36257;46.052;12.540;2023-09-19T04:19:37;19.00;99.90
40932;DHT22;36257;46.052;12.540;2023-09-19T04:22:03;19.00;99.90
40932;DHT22;36257;46.052;12.540;2023-09-19T04:24:29;19.00;99.90
40932;DHT22;36257;46.052;12.540;2023-09-19T04:26:57;19.00;99.90
40932;DHT22;36257;46.052;12.540;2023-09-19T04:29:24;19.00;99.90
40932;DHT22;36257;46.052;12.540;2023-09-19T04:31:52;19.00;99.90
40932;DHT22;36257;46.052;12.540;2023-09-19T04:34:17;19.10;99.90
40932;DHT22;36257;46.052;12.540;2023-09-19T04:36:43;19.00;99.90
40932;DHT22;36257;46.052;12.540;2023-09-19T04:39:09;19.00;99.90
40932;DHT22;36257;46.052;12.540;2023-09-19T04:41:36;19.00;99.90
40932;DHT22;36257;46.052;12.540;2023-09-19T04:44:06;19.00;99.90
40932;DHT22;36257;46.052;12.540;2023-09-19T04:46:33;18.90;99.90
40932;DHT22;36257;46.052;12.540;2023-09-19T04:48:59;18.90;99.90
40932;DHT22;36257;46.052;12.540;2023-09-19T04:51:24;18.80;99.90
40932;DHT22;36257;46.052;12.540;2023-09-19T04:53:52;18.80;99.90
40932;DHT22;36257;46.052;12.540;2023-09-19T04:56:17;18.80;99.90
40932;DHT22;36257;46.052;12.540;2023-09-19T04:58:44;18.80;99.90
40932;DHT22;36257;46.052;12.540;2023-09-19T05:01:10;18.90;99.90
40932;DHT22;36257;46.052;12.540;2023-09-19T05:03:37;18.90;99.90
40932;DHT22;36257;46.052;12.540;2023-09-19T05:06:03;18.80;99.90
40932;DHT22;36257;46.052;12.540;2023-09-19T05:08:30;18.90;99.90
40932;DHT22;36257;46.052;12.540;2023-09-19T05:10:56;18.90;99.90
40932;DHT22;36257;46.052;12.540;2023-09-19T05:13:22;18.90;99.90
40932;DHT22;36257;46.052;12.540;2023-09-19T05:15:49;18.90;99.90
40932;DHT22;36257;46.052;12.540;2023-09-19T05:18:18;18.80;99.90
40932;DHT22;36257;46.052;12.540;2023-09-19T05:20:44;18.80;99.90
40932;DHT22;36257;46.052;12.540;2023-09-19T05:23:10;18.80;99.90
40932;DHT22;36257;46.052;12.540;2023-09-19T05:25:39;18.80;99.90
40932;DHT22;36257;46.052;12.540;2023-09-19T05:28:09;19.00;99.90
40932;DHT22;36257;46.052;12.540;2023-09-19T05:30:37;18.90;99.90
40932;DHT22;36257;46.052;12.540;2023-09-19T05:33:04;19.00;99.90
40932;DHT22;36257;46.052;12.540;2023-09-19T05:35:31;19.00;99.90
40932;DHT22;36257;46.052;12.540;2023-09-19T05:37:57;19.10;99.90
40932;DHT22;36257;46.052;12.540;2023-09-19T05:40:24;19.10;99.90
40932;DHT22;36257;46.052;12.540;2023-09-19T05:42:50;19.20;99.90
40932;DHT22;36257;46.052;12.540;2023-09-19T05:45:16;19.30;99.90
40932;DHT22;36257;46.052;12.540;2023-09-19T05:47:51;19.30;99.90
40932;DHT22;36257;46.052;12.540;2023-09-19T05:50:17;19.40;99.90
40932;DHT22;36257;46.052;12.540;2023-09-19T05:52:50;19.50;99.90
40932;DHT22;36257;46.052;12.540;2023-09-19T05:55:17;19.60;99.90
40932;DHT22;36257;46.052;12.540;2023-09-19T05:57:43;19.70;99.90
40932;DHT22;36257;46.052;12.540;2023-09-19T06:00:09;19.80;99.90
40932;DHT22;36257;46.052;12.540;2023-09-19T06:02:39;20.00;99.90
40932;DHT22;36257;46.052;12.540;2023-09-19T06:05:06;20.10;99.90
40932;DHT22;36257;46.052;12.540;2023-09-19T06:07:34;20.20;99.90
40932;DHT22;36257;46.052;12.540;2023-09-19T06:10:05;20.30;99.90
40932;DHT22;36257;46.052;12.540;2023-09-19T06:12:33;20.30;99.90
40932;DHT22;36257;46.052;12.540;2023-09-19T06:15:03;20.40;99.90
40932;DHT22;36257;46.052;12.540;2023-09-19T06:17:31;20.50;99.90
40932;DHT22;36257;46.052;12.540;2023-09-19T06:19:56;20.70;99.90
40932;DHT22;36257;46.052;12.540;2023-09-19T06:22:22;20.80;99.90
40932;DHT22;36257;46.052;12.540;2023-09-19T06:24:50;20.90;99.90
40932;DHT22;36257;46.052;12.540;2023-09-19T06:27:15;21.00;99.90
40932;DHT22;36257;46.052;12.540;2023-09-19T06:29:41;21.20;99.90
40932;DHT22;36257;46.052;12.540;2023-09-19T06:32:10;21.40;99.90
40932;DHT22;36257;46.052;12.540;2023-09-19T06:34:36;21.50;99.90
40932;DHT22;36257;46.052;12.540;2023-09-19T06:37:04;21.70;99.90
40932;DHT22;36257;46.052;12.540;2023-09-19T06:39:31;21.80;99.90
40932;DHT22;36257;46.052;12.540;2023-09-19T06:41:57;22.00;99.90
40932;DHT22;36257;46.052;12.540;2023-09-19T06:44:23;22.20;99.90
40932;DHT22;36257;46.052;12.540;2023-09-19T06:46:50;22.30;99.90
40932;DHT22;36257;46.052;12.540;2023-09-19T06:49:17;22.60;99.90
40932;DHT22;36257;46.052;12.540;2023-09-19T06:51:43;22.80;99.90
40932;DHT22;36257;46.052;12.540;2023-09-19T06:54:09;23.00;99.90
40932;DHT22;36257;46.052;12.540;2023-09-19T06:56:35;23.30;99.90
40932;DHT22;36257;46.052;12.540;2023-09-19T06:59:01;23.50;99.90
40932;DHT22;36257;46.052;12.540;2023-09-19T07:01:28;23.70;99.90
40932;DHT22;36257;46.052;12.540;2023-09-19T07:03:54;23.90;99.90
40932;DHT22;36257;46.052;12.540;2023-09-19T07:06:20;24.20;99.90
40932;DHT22;36257;46.052;12.540;2023-09-19T07:08:45;24.40;99.60
40932;DHT22;36257;46.052;12.540;2023-09-19T07:11:11;24.70;97.60
40932;DHT22;36257;46.052;12.540;2023-09-19T07:13:38;24.90;99.00
40932;DHT22;36257;46.052;12.540;2023-09-19T07:16:04;25.00;97.00
40932;DHT22;36257;46.052;12.540;2023-09-19T07:18:30;25.20;96.30
40932;DHT22;36257;46.052;12.540;2023-09-19T07:20:57;25.40;96.30
40932;DHT22;36257;46.052;12.540;2023-09-19T07:23:26;25.40;96.10
40932;DHT22;36257;46.052;12.540;2023-09-19T07:25:56;25.40;95.60
40932;DHT22;36257;46.052;12.540;2023-09-19T07:28:21;25.50;95.70
40932;DHT22;36257;46.052;12.540;2023-09-19T07:30:48;25.50;94.50
40932;DHT22;36257;46.052;12.540;2023-09-19T07:33:13;25.30;93.50
40932;DHT22;36257;46.052;12.540;2023-09-19T07:35:40;25.30;93.90
40932;DHT22;36257;46.052;12.540;2023-09-19T07:38:06;25.40;93.00
40932;DHT22;36257;46.052;12.540;2023-09-19T07:40:32;25.50;93.40
40932;DHT22;36257;46.052;12.540;2023-09-19T07:42:58;25.70;94.10
40932;DHT22;36257;46.052;12.540;2023-09-19T07:45:33;25.70;93.30
40932;DHT22;36257;46.052;12.540;2023-09-19T07:47:59;25.60;91.70
40932;DHT22;36257;46.052;12.540;2023-09-19T07:50:29;25.50;92.60
40932;DHT22;36257;46.052;12.540;2023-09-19T07:52:55;25.50;93.90
40932;DHT22;36257;46.052;12.540;2023-09-19T07:55:22;25.70;93.50
40932;DHT22;36257;46.052;12.540;2023-09-19T07:57:50;26.00;93.00
40932;DHT22;36257;46.052;12.540;2023-09-19T08:00:17;26.40;92.90
40932;DHT22;36257;46.052;12.540;2023-09-19T08:02:43;26.50;91.00
40932;DHT22;36257;46.052;12.540;2023-09-19T08:05:09;26.60;91.50
40932;DHT22;36257;46.052;12.540;2023-09-19T08:07:39;26.70;91.00
40932;DHT22;36257;46.052;12.540;2023-09-19T08:10:06;26.80;90.30
40932;DHT22;36257;46.052;12.540;2023-09-19T08:12:43;26.90;89.30
40932;DHT22;36257;46.052;12.540;2023-09-19T08:15:17;27.00;90.40
40932;DHT22;36257;46.052;12.540;2023-09-19T08:17:43;27.00;88.60
40932;DHT22;36257;46.052;12.540;2023-09-19T08:20:10;27.00;90.40
40932;DHT22;36257;46.052;12.540;2023-09-19T08:22:52;27.10;88.10
40932;DHT22;36257;46.052;12.540;2023-09-19T08:25:18;27.20;87.90
40932;DHT22;36257;46.052;12.540;2023-09-19T08:27:45;27.10;88.50
40932;DHT22;36257;46.052;12.540;2023-09-19T08:30:22;27.30;88.60
40932;DHT22;36257;46.052;12.540;2023-09-19T08:32:50;27.60;88.20
40932;DHT22;36257;46.052;12.540;2023-09-19T08:35:15;27.80;88.30
40932;DHT22;36257;46.052;12.540;2023-09-19T08:37:42;28.00;87.70
40932;DHT22;36257;46.052;12.540;2023-09-19T08:40:11;28.10;85.80
40932;DHT22;36257;46.052;12.540;2023-09-19T08:42:52;28.20;84.90
40932;DHT22;36257;46.052;12.540;2023-09-19T08:45:20;28.20;84.60
40932;DHT22;36257;46.052;12.540;2023-09-19T08:47:55;28.30;85.00
40932;DHT22;36257;46.052;12.540;2023-09-19T08:50:28;28.30;84.50
40932;DHT22;36257;46.052;12.540;2023-09-19T08:52:55;28.30;85.30
40932;DHT22;36257;46.052;12.540;2023-09-19T08:55:27;28.50;84.80
40932;DHT22;36257;46.052;12.540;2023-09-19T08:57:59;28.70;84.70
40932;DHT22;36257;46.052;12.540;2023-09-19T09:00:27;28.80;84.30
40932;DHT22;36257;46.052;12.540;2023-09-19T09:02:55;28.80;83.90
40932;DHT22;36257;46.052;12.540;2023-09-19T09:05:22;28.90;83.80
40932;DHT22;36257;46.052;12.540;2023-09-19T09:07:52;28.90;83.10
40932;DHT22;36257;46.052;12.540;2023-09-19T09:10:21;28.70;83.30
40932;DHT22;36257;46.052;12.540;2023-09-19T09:12:52;28.60;84.90
40932;DHT22;36257;46.052;12.540;2023-09-19T09:15:21;28.60;83.20
40932;DHT22;36257;46.052;12.540;2023-09-19T09:17:49;28.70;84.80
40932;DHT22;36257;46.052;12.540;2023-09-19T09:20:19;28.60;83.20
40932;DHT22;36257;46.052;12.540;2023-09-19T09:22:55;28.60;83.80
40932;DHT22;36257;46.052;12.540;2023-09-19T09:25:47;28.70;84.10
40932;DHT22;36257;46.052;12.540;2023-09-19T09:28:20;28.70;83.20
40932;DHT22;36257;46.052;12.540;2023-09-19T09:30:46;28.90;84.20
40932;DHT22;36257;46.052;12.540;2023-09-19T09:33:14;29.10;83.50
40932;DHT22;36257;46.052;12.540;2023-09-19T09:35:54;29.30;82.00
40932;DHT22;36257;46.052;12.540;2023-09-19T09:38:24;29.50;83.20
40932;DHT22;36257;46.052;12.540;2023-09-19T09:40:54;29.70;81.90
40932;DHT22;36257;46.052;12.540;2023-09-19T09:43:34;30.00;80.40
40932;DHT22;36257;46.052;12.540;2023-09-19T09:46:13;30.00;78.50
40932;DHT22;36257;46.052;12.540;2023-09-19T09:51:38;29.90;78.90
40932;DHT22;36257;46.052;12.540;2023-09-19T09:54:15;30.00;78.20
40932;DHT22;36257;46.052;12.540;2023-09-19T09:56:58;30.00;78.60
40932;DHT22;36257;46.052;12.540;2023-09-19T09:59:52;29.80;79.90
40932;DHT22;36257;46.052;12.540;2023-09-19T10:02:29;29.60;80.00
40932;DHT22;36257;46.052;12.540;2023-09-19T10:04:58;29.40;81.30
40932;DHT22;36257;46.052;12.540;2023-09-19T10:07:29;29.40;81.40
40932;DHT22;36257;46.052;12.540;2023-09-19T10:10:05;29.80;81.70
40932;DHT22;36257;46.052;12.540;2023-09-19T10:12:48;30.10;78.90
40932;DHT22;36257;46.052;12.540;2023-09-19T10:15:17;30.20;79.10
40932;DHT22;36257;46.052;12.540;2023-09-19T10:17:46;30.00;78.00
40932;DHT22;36257;46.052;12.540;2023-09-19T10:20:16;29.70;78.20
40932;DHT22;36257;46.052;12.540;2023-09-19T10:22:57;29.90;78.90
40932;DHT22;36257;46.052;12.540;2023-09-19T10:25:28;30.10;78.60
40932;DHT22;36257;46.052;12.540;2023-09-19T10:27:55;30.00;79.00
40932;DHT22;36257;46.052;12.540;2023-09-19T10:30:24;29.70;80.50
40932;DHT22;36257;46.052;12.540;2023-09-19T10:32:59;29.50;81.20
40932;DHT22;36257;46.052;12.540;2023-09-19T10:35:25;29.50;82.20
40932;DHT22;36257;46.052;12.540;2023-09-19T10:37:52;29.40;81.30
40932;DHT22;36257;46.052;12.540;2023-09-19T10:40:21;29.60;80.50
40932;DHT22;36257;46.052;12.540;2023-09-19T10:42:52;30.00;80.60
40932;DHT22;36257;46.052;12.540;2023-09-19T10:45:19;30.20;79.40
40932;DHT22;36257;46.052;12.540;2023-09-19T10:47:46;30.60;80.40
40932;DHT22;36257;46.052;12.540;2023-09-19T10:50:20;30.60;77.60
40932;DHT22;36257;46.052;12.540;2023-09-19T10:52:50;30.80;79.30
40932;DHT22;36257;46.052;12.540;2023-09-19T10:55:25;31.10;78.00
40932;DHT22;36257;46.052;12.540;2023-09-19T10:57:51;31.20;75.70
40932;DHT22;36257;46.052;12.540;2023-09-19T11:00:17;31.10;75.50
40932;DHT22;36257;46.052;12.540;2023-09-19T11:03:24;31.20;77.30
40932;DHT22;36257;46.052;12.540;2023-09-19T11:06:10;31.50;77.30
40932;DHT22;36257;46.052;12.540;2023-09-19T11:08:59;31.80;76.70
40932;DHT22;36257;46.052;12.540;2023-09-19T11:11:43;31.60;75.90
40932;DHT22;36257;46.052;12.540;2023-09-19T11:30:52;30.20;79.60
40932;DHT22;36257;46.052;12.540;2023-09-19T11:33:22;30.80;79.40
40932;DHT22;36257;46.052;12.540;2023-09-19T11:36:11;31.40;77.20
40932;DHT22;36257;46.052;12.540;2023-09-19T11:46:32;32.00;75.50
40932;DHT22;36257;46.052;12.540;2023-09-19T11:49:08;31.90;75.50
40932;DHT22;36257;46.052;12.540;2023-09-19T11:51:42;31.70;76.90
40932;DHT22;36257;46.052;12.540;2023-09-19T11:54:12;31.80;76.50
40932;DHT22;36257;46.052;12.540;2023-09-19T11:56:48;32.10;75.20
40932;DHT22;36257;46.052;12.540;2023-09-19T12:01:55;32.30;74.20
40932;DHT22;36257;46.052;12.540;2023-09-19T12:07:07;31.00;75.00
40932;DHT22;36257;46.052;12.540;2023-09-19T12:09:39;30.40;78.90
40932;DHT22;36257;46.052;12.540;2023-09-19T12:12:06;29.50;83.80
40932;DHT22;36257;46.052;12.540;2023-09-19T12:14:32;28.80;85.80
40932;DHT22;36257;46.052;12.540;2023-09-19T12:16:58;28.20;88.90
40932;DHT22;36257;46.052;12.540;2023-09-19T12:19:26;27.70;91.20
40932;DHT22;36257;46.052;12.540;2023-09-19T12:22:00;27.40;93.60
40932;DHT22;36257;46.052;12.540;2023-09-19T12:24:34;27.10;95.50
40932;DHT22;36257;46.052;12.540;2023-09-19T12:27:06;26.70;96.80
40932;DHT22;36257;46.052;12.540;2023-09-19T12:29:46;26.50;98.30
40932;DHT22;36257;46.052;12.540;2023-09-19T12:32:16;26.50;99.80
40932;DHT22;36257;46.052;12.540;2023-09-19T12:34:42;26.30;98.80
40932;DHT22;36257;46.052;12.540;2023-09-19T12:37:11;26.10;96.70
40932;DHT22;36257;46.052;12.540;2023-09-19T12:39:42;25.70;96.10
40932;DHT22;36257;46.052;12.540;2023-09-19T12:42:10;25.50;96.40
40932;DHT22;36257;46.052;12.540;2023-09-19T12:44:41;25.30;97.30
40932;DHT22;36257;46.052;12.540;2023-09-19T12:47:15;25.10;98.20
40932;DHT22;36257;46.052;12.540;2023-09-19T12:50:05;25.00;99.40
40932;DHT22;36257;46.052;12.540;2023-09-19T12:52:37;25.20;99.20
40932;DHT22;36257;46.052;12.540;2023-09-19T12:55:04;25.30;99.80
40932;DHT22;36257;46.052;12.540;2023-09-19T12:57:32;25.20;99.70
40932;DHT22;36257;46.052;12.540;2023-09-19T13:00:01;25.10;99.60
40932;DHT22;36257;46.052;12.540;2023-09-19T13:02:27;24.90;99.80
40932;DHT22;36257;46.052;12.540;2023-09-19T13:04:54;24.80;98.60
40932;DHT22;36257;46.052;12.540;2023-09-19T13:07:44;24.60;97.50
40932;DHT22;36257;46.052;12.540;2023-09-19T13:10:11;24.40;99.90
40932;DHT22;36257;46.052;12.540;2023-09-19T13:12:40;24.40;99.70
40932;DHT22;36257;46.052;12.540;2023-09-19T13:15:15;24.20;99.90
40932;DHT22;36257;46.052;12.540;2023-09-19T13:17:45;24.30;99.50
40932;DHT22;36257;46.052;12.540;2023-09-19T13:20:26;24.30;98.20
40932;DHT22;36257;46.052;12.540;2023-09-19T13:22:57;24.10;97.80
40932;DHT22;36257;46.052;12.540;2023-09-19T13:25:34;23.90;98.90
40932;DHT22;36257;46.052;12.540;2023-09-19T13:28:00;23.80;99.40
40932;DHT22;36257;46.052;12.540;2023-09-19T13:30:29;23.70;97.80
40932;DHT22;36257;46.052;12.540;2023-09-19T13:33:08;23.60;99.20
40932;DHT22;36257;46.052;12.540;2023-09-19T13:35:35;23.60;98.70
40932;DHT22;36257;46.052;12.540;2023-09-19T13:38:04;23.60;98.70
40932;DHT22;36257;46.052;12.540;2023-09-19T13:40:29;23.70;98.30
40932;DHT22;36257;46.052;12.540;2023-09-19T13:43:00;23.80;97.10
40932;DHT22;36257;46.052;12.540;2023-09-19T13:45:26;23.90;97.10
40932;DHT22;36257;46.052;12.540;2023-09-19T13:47:56;24.00;97.30
40932;DHT22;36257;46.052;12.540;2023-09-19T13:50:22;24.00;96.60
40932;DHT22;36257;46.052;12.540;2023-09-19T13:52:50;24.20;95.60
40932;DHT22;36257;46.052;12.540;2023-09-19T13:55:19;24.20;95.10
40932;DHT22;36257;46.052;12.540;2023-09-19T13:57:48;24.30;95.20
40932;DHT22;36257;46.052;12.540;2023-09-19T14:00:20;24.50;95.20
40932;DHT22;36257;46.052;12.540;2023-09-19T14:02:45;24.60;94.10
40932;DHT22;36257;46.052;12.540;2023-09-19T14:05:12;24.70;91.70
40932;DHT22;36257;46.052;12.540;2023-09-19T14:07:43;24.80;90.80
40932;DHT22;36257;46.052;12.540;2023-09-19T14:10:10;24.80;92.10
40932;DHT22;36257;46.052;12.540;2023-09-19T14:12:37;24.80;90.30
40932;DHT22;36257;46.052;12.540;2023-09-19T14:15:04;24.80;88.90
40932;DHT22;36257;46.052;12.540;2023-09-19T14:17:29;24.80;89.20
40932;DHT22;36257;46.052;12.540;2023-09-19T14:19:55;24.70;90.40
40932;DHT22;36257;46.052;12.540;2023-09-19T14:22:21;24.70;90.50
40932;DHT22;36257;46.052;12.540;2023-09-19T14:24:47;24.70;90.30
40932;DHT22;36257;46.052;12.540;2023-09-19T14:27:13;24.70;89.70
40932;DHT22;36257;46.052;12.540;2023-09-19T14:29:38;24.70;89.00
40932;DHT22;36257;46.052;12.540;2023-09-19T14:32:05;24.60;87.70
40932;DHT22;36257;46.052;12.540;2023-09-19T14:34:30;24.60;88.50
40932;DHT22;36257;46.052;12.540;2023-09-19T14:36:57;24.60;87.30
40932;DHT22;36257;46.052;12.540;2023-09-19T14:39:22;24.60;87.90
40932;DHT22;36257;46.052;12.540;2023-09-19T14:41:49;24.60;87.20
40932;DHT22;36257;46.052;12.540;2023-09-19T14:44:15;24.60;87.30
40932;DHT22;36257;46.052;12.540;2023-09-19T14:46:43;24.50;86.50
40932;DHT22;36257;46.052;12.540;2023-09-19T14:49:10;24.50;87.30
40932;DHT22;36257;46.052;12.540;2023-09-19T14:51:37;24.60;87.60
40932;DHT22;36257;46.052;12.540;2023-09-19T14:54:05;24.60;87.50
40932;DHT22;36257;46.052;12.540;2023-09-19T14:56:33;24.80;86.70
40932;DHT22;36257;46.052;12.540;2023-09-19T14:58:58;24.80;87.10
40932;DHT22;36257;46.052;12.540;2023-09-19T15:01:24;24.90;87.00
40932;DHT22;36257;46.052;12.540;2023-09-19T15:03:50;24.90;87.10
40932;DHT22;36257;46.052;12.540;2023-09-19T15:06:16;24.90;86.20
40932;DHT22;36257;46.052;12.540;2023-09-19T15:08:46;24.90;86.60
40932;DHT22;36257;46.052;12.540;2023-09-19T15:11:16;24.90;86.10
40932;DHT22;36257;46.052;12.540;2023-09-19T15:13:43;25.00;86.60
40932;DHT22;36257;46.052;12.540;2023-09-19T15:16:10;25.00;85.60
40932;DHT22;36257;46.052;12.540;2023-09-19T15:18:37;25.10;85.70
40932;DHT22;36257;46.052;12.540;2023-09-19T15:21:21;25.20;86.00
40932;DHT22;36257;46.052;12.540;2023-09-19T15:23:46;25.20;83.90
40932;DHT22;36257;46.052;12.540;2023-09-19T15:26:13;25.20;81.90
40932;DHT22;36257;46.052;12.540;2023-09-19T15:28:42;25.20;82.90
40932;DHT22;36257;46.052;12.540;2023-09-19T15:31:10;25.20;82.40
40932;DHT22;36257;46.052;12.540;2023-09-19T15:33:36;25.20;80.70
40932;DHT22;36257;46.052;12.540;2023-09-19T15:38:29;25.20;80.50
40932;DHT22;36257;46.052;12.540;2023-09-19T15:40:55;25.20;81.50
40932;DHT22;36257;46.052;12.540;2023-09-19T15:43:21;25.20;80.80
40932;DHT22;36257;46.052;12.540;2023-09-19T15:45:49;25.30;79.70
40932;DHT22;36257;46.052;12.540;2023-09-19T15:48:14;25.30;81.00
40932;DHT22;36257;46.052;12.540;2023-09-19T15:50:40;25.30;80.40
40932;DHT22;36257;46.052;12.540;2023-09-19T15:53:09;25.30;79.60
40932;DHT22;36257;46.052;12.540;2023-09-19T15:55:39;25.30;80.00
40932;DHT22;36257;46.052;12.540;2023-09-19T15:58:09;25.20;80.60
40932;DHT22;36257;46.052;12.540;2023-09-19T16:00:39;25.20;81.20
40932;DHT22;36257;46.052;12.540;2023-09-19T16:03:05;25.10;81.60
40932;DHT22;36257;46.052;12.540;2023-09-19T16:05:37;25.10;82.20
40932;DHT22;36257;46.052;12.540;2023-09-19T16:08:06;25.10;81.50
40932;DHT22;36257;46.052;12.540;2023-09-19T16:10:35;25.00;80.40
40932;DHT22;36257;46.052;12.540;2023-09-19T16:13:02;24.90;81.40